Time;durP1;ratioP1;P1;durP2;ratioP2;P2;SDS_P1;SDS_P2;PMS_P1;PMS_P2;Temp;Humidity;BMP_temperature;BMP_pressure;BME280_temperature;BME280_humidity;BME280_pressure;Samples;Min_cycle;Max_cycle;Signal;HPM_P1;HPM_P2
2022/03/05 00:02:22;;;;;;;;;;;;;;;;;;5030396;28;19953;-84
2022/03/05 00:08:23;;;;;;;;;;;;;;;;;;5005826;28;19978;-85
2022/03/05 00:11:18;;;;;;;;;;;;;;;;;;5015194;28;20048;-85
2022/03/05 00:14:04;;;;;;;;;;;;;;;;;;5029613;28;19942;-84
2022/03/05 00:16:49;;;;;;;;;;;;;;;;;;5002489;28;19929;-85
2022/03/05 00:19:29;;;;;;;;;;;;;;;;;;5027814;28;20009;-87
2022/03/05 00:24:46;;;;;;;;;;;;;;;;;;5004020;28;19949;-84
2022/03/05 00:27:13;;;;;;;;;;;;;;;;;;5003254;28;19936;-85
2022/03/05 00:29:40;;;;;;;;;;;;;;;;;;5015259;28;20001;-84
2022/03/05 00:32:07;;;;;;;;;;;;;;;;;;5000369;28;20421;-83
2022/03/05 00:34:36;;;;;;;;;;;0.50;99.90;;;;;;4996613;28;20075;-84
2022/03/05 00:37:05;;;;;;;;;;;0.50;99.90;;;;;;5019431;28;19925;-84
2022/03/05 00:39:32;;;;;;;;;;;;;;;;;;5001427;28;19937;-85
2022/03/05 00:41:59;;;;;;;;;;;;;;;;;;5020593;28;19926;-84
2022/03/05 00:44:26;;;;;;;;;;;;;;;;;;5020992;28;19940;-85
2022/03/05 00:46:53;;;;;;;;;;;;;;;;;;5018247;28;19930;-85
2022/03/05 00:49:19;;;;;;;;;;;0.30;99.90;;;;;;5020945;28;19929;-85
2022/03/05 00:51:48;;;;;;;;;;;0.40;99.90;;;;;;5002614;28;19925;-86
2022/03/05 00:54:15;;;;;;;;;;;;;;;;;;5018715;28;19933;-86
2022/03/05 00:56:41;;;;;;;;;;;0.30;99.90;;;;;;5015780;28;19930;-85
2022/03/05 00:59:08;;;;;;;;;;;;;;;;;;5004987;28;20106;-86
2022/03/05 01:01:35;;;;;;;;;;;;;;;;;;5018099;28;19929;-86
2022/03/05 01:04:04;;;;;;;;;;;;;;;;;;5020900;28;19929;-85
2022/03/05 01:06:50;;;;;;;;;;;;;;;;;;;;;
2022/03/05 01:09:21;;;;;;;;;;;;;;;;;;5006346;28;19926;-85
2022/03/05 01:11:48;;;;;;;;;;;;;;;;;;5008079;28;19953;-84
2022/03/05 01:14:15;;;;;;;;;;;;;;;;;;5028284;28;19996;-84
2022/03/05 01:16:48;;;;;;;;;;;;;;;;;;5020766;28;19986;-86
2022/03/05 01:19:16;;;;;;;;;;;0.10;99.90;;;;;;5020837;28;19929;-85
2022/03/05 01:21:43;;;;;;;;;;;;;;;;;;5019288;28;19926;-84
2022/03/05 01:24:10;;;;;;;;;;;;;;;;;;5007113;28;19925;-84
2022/03/05 01:26:37;;;;;;;;;;;;;;;;;;5020087;28;19953;-86
2022/03/05 01:29:04;;;;;;;;;;;;;;;;;;5016667;28;20012;-85
2022/03/05 01:31:31;;;;;;;;;;;;;;;;;;5016811;28;19937;-84
2022/03/05 01:33:58;;;;;;;;;;;;;;;;;;5015428;28;19930;-84
2022/03/05 01:36:25;;;;;;;;;;;;;;;;;;5017379;28;19929;-86
2022/03/05 01:38:54;;;;;;;;;;;-0.20;99.90;;;;;;5007314;28;19940;-84
2022/03/05 01:41:21;;;;;;;;;;;-0.10;99.90;;;;;;5019758;28;19937;-84
2022/03/05 01:43:51;;;;;;;;;;;-0.20;99.90;;;;;;5023561;28;20340;-84
2022/03/05 01:46:27;;;;;;;;;;;-0.20;99.90;;;;;;5019555;28;19930;-85
2022/03/05 01:48:54;;;;;;;;;;;-0.20;99.90;;;;;;5033805;28;19932;-84
2022/03/05 01:51:21;;;;;;;;;;;;;;;;;;5021264;28;20028;-85
2022/03/05 01:53:48;;;;;;;;;;;;;;;;;;5019096;28;19925;-85
2022/03/05 01:56:15;;;;;;;;;;;;;;;;;;5002931;28;19971;-85
2022/03/05 01:58:43;;;;;;;;;;;-0.30;99.90;;;;;;5022955;28;20025;-85
2022/03/05 02:01:10;;;;;;;;;;;-0.30;99.90;;;;;;5020078;28;19929;-84
2022/03/05 02:03:37;;;;;;;;;;;;;;;;;;5022669;28;20748;-85
2022/03/05 02:06:05;;;;;;;;;;;;;;;;;;5025252;28;19975;-85
2022/03/05 02:08:32;;;;;;;;;;;;;;;;;;5017779;28;19925;-85
2022/03/05 02:10:59;;;;;;;;;;;;;;;;;;5018755;28;20013;-85
2022/03/05 02:13:27;;;;;;;;;;;-0.50;99.90;;;;;;5008217;28;19917;-85
2022/03/05 02:15:54;;;;;;;;;;;;;;;;;;5014513;28;19914;-84
2022/03/05 02:18:22;;;;;;;;;;;-0.60;99.90;;;;;;5025607;28;19917;-83
2022/03/05 02:20:51;;;;;;;;;;;-0.60;99.90;;;;;;5031994;28;19933;-84
2022/03/05 02:23:17;;;;;;;;;;;-0.70;99.90;;;;;;5021429;28;19940;-84
2022/03/05 02:25:51;;;;;;;;;;;-0.70;99.90;;;;;;5009669;28;19925;-84
2022/03/05 02:28:19;;;;;;;;;;;-0.70;99.90;;;;;;5025225;28;19947;-84
2022/03/05 02:30:46;;;;;;;;;;;-0.80;99.90;;;;;;5023173;28;19940;-84
2022/03/05 02:33:13;;;;;;;;;;;-0.80;99.90;;;;;;5014380;28;19949;-82
2022/03/05 02:35:40;;;;;;;;;;;-0.80;99.90;;;;;;5003494;28;20424;-83
2022/03/05 02:38:08;;;;;;;;;;;-0.80;99.90;;;;;;5011397;28;19969;-83
2022/03/05 02:40:35;;;;;;;;;;;1.10;99.90;;;;;;4991196;28;19933;-84
2022/03/05 02:43:01;;;;;;;;;;;-0.80;99.90;;;;;;5012553;28;19940;-83
2022/03/05 02:45:28;;;;;;;;;;;-0.80;99.90;;;;;;5012181;28;19945;-84
2022/03/05 02:47:55;;;;;;;;;;;-0.80;99.90;;;;;;5012658;28;19929;-84
2022/03/05 02:50:22;;;;;;;;;;;-0.80;99.90;;;;;;5011885;28;19929;-83
2022/03/05 02:52:48;;;;;;;;;;;-0.80;99.90;;;;;;5011044;28;19933;-84
2022/03/05 02:55:16;;;;;;;;;;;-0.80;99.90;;;;;;4984478;28;19936;-84
2022/03/05 02:57:44;;;;;;;;;;;-0.80;99.90;;;;;;5010554;28;19930;-84
2022/03/05 03:00:13;;;;;;;;;;;-0.80;99.90;;;;;;5012482;28;20671;-84
2022/03/05 03:02:39;;;;;;;;;;;-0.90;99.90;;;;;;5013599;28;19958;-83
2022/03/05 03:05:06;;;;;;;;;;;-0.80;99.90;;;;;;5015803;28;19929;-85
2022/03/05 03:07:33;;;;;;;;;;;-0.90;99.90;;;;;;5011807;28;19933;-84
2022/03/05 03:10:00;;;;;;;;;;;-0.90;99.90;;;;;;5012358;28;19937;-83
2022/03/05 03:12:29;;;;;;;;;;;-0.90;99.90;;;;;;5016102;28;19960;-84
2022/03/05 03:14:55;;;;;;;;;;;-0.90;99.90;;;;;;5011457;28;20052;-84
2022/03/05 03:17:22;;;;;;;;;;;-0.90;99.90;;;;;;5025208;28;19920;-84
2022/03/05 03:19:49;;;;;;;;;;;-1.00;99.90;;;;;;5001673;28;20279;-84
2022/03/05 03:22:15;;;;;;;;;;;-1.00;99.90;;;;;;5015688;28;19926;-84
2022/03/05 03:24:42;;;;;;;;;;;-1.00;99.90;;;;;;5012379;28;19977;-85
2022/03/05 03:27:09;;;;;;;;;;;-1.00;99.90;;;;;;5023805;28;19926;-84
2022/03/05 03:29:37;;;;;;;;;;;-1.10;99.90;;;;;;5016946;28;19926;-84
2022/03/05 03:32:04;;;;;;;;;;;0.80;99.90;;;;;;5026742;28;19938;-85
2022/03/05 03:34:31;;;;;;;;;;;-1.10;99.90;;;;;;5029568;28;19935;-86
2022/03/05 03:36:58;;;;;;;;;;;-1.10;99.90;;;;;;5030124;28;19914;-85
2022/03/05 03:39:25;;;;;;;;;;;-1.20;99.90;;;;;;5028924;28;19913;-85
2022/03/05 03:41:52;;;;;;;;;;;-1.20;99.90;;;;;;5030354;28;19925;-84
2022/03/05 03:44:19;;;;;;;;;;;-1.10;99.90;;;;;;5030593;28;20143;-86
2022/03/05 03:46:47;;;;;;;;;;;-1.20;99.90;;;;;;5028543;28;19921;-85
2022/03/05 03:49:13;;;;;;;;;;;-1.10;99.90;;;;;;5030405;28;19920;-85
2022/03/05 03:51:40;;;;;;;;;;;-1.10;99.90;;;;;;5031330;28;19926;-84
2022/03/05 03:54:07;;;;;;;;;;;-1.10;99.90;;;;;;5031486;28;19926;-85
2022/03/05 03:56:34;;;;;;;;;;;-1.10;99.90;;;;;;5030207;28;19929;-84
2022/03/05 03:59:00;;;;;;;;;;;-1.20;99.90;;;;;;5013002;28;19925;-84
2022/03/05 04:01:27;;;;;;;;;;;-1.20;99.90;;;;;;5025582;28;19953;-84
2022/03/05 04:03:54;;;;;;;;;;;;;;;;;;5008850;28;19925;-84
2022/03/05 04:06:22;;;;;;;;;;;-1.10;99.90;;;;;;5012654;28;20367;-83
2022/03/05 04:08:48;;;;;;;;;;;-1.20;99.90;;;;;;5010721;28;20003;-84
2022/03/05 04:11:18;;;;;;;;;;;-1.20;99.90;;;;;;5009503;28;20309;-83
2022/03/05 04:13:45;;;;;;;;;;;-1.20;99.90;;;;;;5011025;28;19956;-83
2022/03/05 04:16:13;;;;;;;;;;;-1.20;99.90;;;;;;4997655;28;19929;-83
2022/03/05 04:18:39;;;;;;;;;;;-1.20;99.90;;;;;;5011184;28;19992;-83
2022/03/05 04:21:08;;;;;;;;;;;-1.20;99.90;;;;;;5029708;28;19937;-84
2022/03/05 04:23:36;;;;;;;;;;;-1.20;99.90;;;;;;5015434;28;19929;-83
2022/03/05 04:26:03;;;;;;;;;;;-1.20;99.90;;;;;;5024094;28;19953;-83
2022/03/05 04:28:30;;;;;;;;;;;-1.20;99.90;;;;;;5011898;28;19980;-83
2022/03/05 04:30:56;;;;;;;;;;;-1.40;99.90;;;;;;5003565;28;19934;-84
2022/03/05 04:33:23;;;;;;;;;;;-1.20;99.90;;;;;;5015129;28;20428;-83
2022/03/05 04:35:50;;;;;;;;;;;-1.20;99.90;;;;;;5030172;28;19936;-83
2022/03/05 04:38:17;;;;;;;;;;;-1.20;99.90;;;;;;5021252;28;20424;-83
2022/03/05 04:40:45;;;;;;;;;;;-1.30;99.90;;;;;;5013572;28;19956;-83
2022/03/05 04:43:11;;;;;;;;;;;-1.30;99.90;;;;;;5005161;28;19999;-83
2022/03/05 04:45:40;;;;;;;;;;;-1.30;99.90;;;;;;5012990;28;19968;-85
2022/03/05 04:48:07;;;;;;;;;;;-1.30;99.90;;;;;;5013966;28;20507;-83
2022/03/05 04:50:35;;;;;;;;;;;-1.30;99.90;;;;;;5005563;28;19971;-83
2022/03/05 04:53:02;;;;;;;;;;;-1.30;99.90;;;;;;5013339;28;20655;-83
2022/03/05 04:55:29;;;;;;;;;;;-1.30;99.90;;;;;;5008537;28;19972;-83
2022/03/05 04:57:57;;;;;;;;;;;-1.30;99.90;;;;;;5012603;28;19948;-84
2022/03/05 05:00:24;;;;;;;;;;;-1.30;99.90;;;;;;4995018;28;19944;-83
2022/03/05 05:02:51;;;;;;;;;;;-1.30;99.90;;;;;;5012217;28;19926;-84
2022/03/05 05:05:17;;;;;;;;;;;-1.30;99.90;;;;;;5019289;28;20028;-86
2022/03/05 05:07:44;;;;;;;;;;;-1.30;99.90;;;;;;5022860;28;19940;-85
2022/03/05 05:10:11;;;;;;;;;;;-1.30;99.90;;;;;;5004567;28;19932;-82
2022/03/05 05:12:37;;;;;;;;;;;-1.30;99.90;;;;;;5020477;28;19937;-83
2022/03/05 05:15:06;;;;;;;;;;;-1.40;99.90;;;;;;5009438;28;19929;-86
2022/03/05 05:17:35;;;;;;;;;;;-1.30;99.90;;;;;;5030132;28;20004;-85
2022/03/05 05:20:01;;;;;;;;;;;0.30;99.90;;;;;;5001157;28;19925;-83
2022/03/05 05:22:29;;;;;;;;;;;-1.40;99.90;;;;;;5023548;28;20008;-84
2022/03/05 05:24:56;;;;;;;;;;;-1.40;99.90;;;;;;5021356;28;19925;-84
2022/03/05 05:27:23;;;;;;;;;;;-1.40;99.90;;;;;;5030456;28;19948;-86
2022/03/05 05:29:51;;;;;;;;;;;-1.40;99.90;;;;;;5027118;28;19933;-83
2022/03/05 05:32:19;;;;;;;;;;;-1.40;99.90;;;;;;5020398;28;20378;-83
2022/03/05 05:34:47;;;;;;;;;;;-1.40;99.90;;;;;;5020570;28;19929;-85
2022/03/05 05:37:14;;;;;;;;;;;-1.30;99.90;;;;;;5005172;28;19940;-84
2022/03/05 05:39:41;;;;;;;;;;;-1.50;99.90;;;;;;5006767;28;20024;-85
2022/03/05 05:42:08;;;;;;;;;;;-1.50;99.90;;;;;;5022740;28;19932;-84
2022/03/05 05:44:35;;;;;;;;;;;-1.50;99.90;;;;;;5017450;28;19929;-83
2022/03/05 05:47:01;;;;;;;;;;;-1.50;99.90;;;;;;5009105;28;19941;-84
2022/03/05 05:49:29;;;;;;;;;;;-1.50;99.90;;;;;;5001716;28;19925;-83
2022/03/05 05:51:56;;;;;;;;;;;-1.60;99.90;;;;;;5012804;28;20017;-83
2022/03/05 05:54:23;;;;;;;;;;;-1.60;99.90;;;;;;5012535;28;19956;-85
2022/03/05 05:56:50;;;;;;;;;;;-1.60;99.90;;;;;;5024710;28;19940;-84
2022/03/05 05:59:17;;;;;;;;;;;-1.60;99.90;;;;;;5012758;28;19940;-83
2022/03/05 06:01:44;;;;;;;;;;;-1.60;99.90;;;;;;5002011;28;19925;-84
2022/03/05 06:04:10;;;;;;;;;;;-1.60;99.90;;;;;;5012775;28;20003;-84
2022/03/05 06:06:39;;;;;;;;;;;-1.60;99.90;;;;;;5009574;28;20521;-83
2022/03/05 06:09:06;;;;;;;;;;;-1.60;99.90;;;;;;5014004;28;20027;-83
2022/03/05 06:11:34;;;;;;;;;;;-1.60;99.90;;;;;;5011906;28;19953;-84
2022/03/05 06:14:00;;;;;;;;;;;-1.50;99.90;;;;;;4997078;28;19925;-87
2022/03/05 06:16:27;;;;;;;;;;;-1.50;99.90;;;;;;4997261;28;19984;-85
2022/03/05 06:18:54;;;;;;;;;;;-1.50;99.90;;;;;;5003353;28;19926;-85
2022/03/05 06:21:21;;;;;;;;;;;-1.50;99.90;;;;;;5013918;28;19926;-85
2022/03/05 06:23:49;;;;;;;;;;;-1.50;99.90;;;;;;5012284;28;19941;-85
2022/03/05 06:26:16;;;;;;;;;;;-1.50;99.90;;;;;;4993246;28;19933;-85
2022/03/05 06:28:42;;;;;;;;;;;-1.50;99.90;;;;;;5013002;28;19929;-86
2022/03/05 06:31:09;;;;;;;;;;;-1.40;99.90;;;;;;5018334;28;19937;-85
2022/03/05 06:33:36;;;;;;;;;;;-1.40;99.90;;;;;;5017810;28;19930;-86
2022/03/05 06:36:03;;;;;;;;;;;-1.40;99.90;;;;;;5014426;28;19929;-86
2022/03/05 06:38:30;;;;;;;;;;;-1.20;99.90;;;;;;5019749;28;19929;-88
2022/03/05 06:40:58;;;;;;;;;;;-1.20;99.90;;;;;;5030375;28;19926;-90
2022/03/05 06:43:25;;;;;;;;;;;-1.10;99.90;;;;;;5009982;28;20245;-86
2022/03/05 06:45:52;;;;;;;;;;;-1.10;99.90;;;;;;5013633;28;19914;-88
2022/03/05 06:48:19;;;;;;;;;;;-0.60;99.90;;;;;;5020917;28;19940;-86
2022/03/05 06:50:45;;;;;;;;;;;-0.20;99.90;;;;;;5022085;28;19932;-85
2022/03/05 06:53:12;;;;;;;;;;;0.50;99.90;;;;;;5013163;28;20249;-88
2022/03/05 06:55:39;;;;;;;;;;;0.60;99.90;;;;;;5026266;28;19929;-85
2022/03/05 06:58:07;;;;;;;;;;;0.90;99.90;;;;;;5017680;28;19925;-85
2022/03/05 07:00:34;;;;;;;;;;;1.40;99.90;;;;;;5016936;28;19926;-87
2022/03/05 07:03:00;;;;;;;;;;;2.00;99.90;;;;;;5015663;28;19933;-85
2022/03/05 07:05:27;;;;;;;;;;;2.60;99.90;;;;;;5016870;28;19937;-85
2022/03/05 07:07:54;;;;;;;;;;;3.20;99.90;;;;;;5002809;28;19941;-87
2022/03/05 07:10:21;;;;;;;;;;;3.70;99.90;;;;;;5012674;28;19937;-84
2022/03/05 07:12:48;;;;;;;33.13;15.67;;;;;;;;;;5016219;28;20067;-85
2022/03/05 07:15:17;;;;;;;33.80;16.27;;;4.60;99.90;;;;;;5017313;28;20245;-84
2022/03/05 07:17:50;;;;;;;33.33;16.33;;;5.50;99.90;;;;;;5008519;28;20213;-85
2022/03/05 07:20:17;;;;;;;35.30;16.57;;;5.90;99.90;;;;;;5010969;28;20283;-88
2022/03/05 07:22:44;;;;;;;28.93;16.17;;;8.00;99.90;;;;;;5015601;28;20220;-90
2022/03/05 07:25:14;;;;;;;33.67;15.27;;;6.90;99.90;;;;;;5012686;28;20301;-88
2022/03/05 07:27:42;;;;;;;34.77;16.17;;;5.30;99.90;;;;;;5025382;28;20219;-88
2022/03/05 07:30:10;;;;;;;32.07;15.27;;;7.30;99.90;;;;;;5005236;28;20212;-86
2022/03/05 07:32:39;;;;;;;31.27;15.43;;;;;;;;;;5017165;28;20206;-86
2022/03/05 07:35:08;;;;;;;34.33;16.00;;;;;;;;;;5018571;28;20226;-85
2022/03/05 07:37:35;;;;;;;31.60;15.57;;;8.40;99.90;;;;;;4999423;28;20235;-90
2022/03/05 07:40:03;;;;;;;;;;;8.80;99.90;;;;;;5029141;28;20116;-90
2022/03/05 07:42:30;;;;;;;;;;;9.10;99.90;;;;;;5012634;28;20131;-90
2022/03/05 07:44:57;;;;;;;;;;;9.70;99.90;;;;;;5030865;28;19909;-89
2022/03/05 07:47:23;;;;;;;;;;;9.90;99.90;;;;;;5014833;28;19909;-89
2022/03/05 07:49:54;;;;;;;;;;;10.30;99.90;;;;;;5011903;28;19925;-89
2022/03/05 07:52:21;;;;;;;;;;;10.60;99.90;;;;;;5034977;28;19927;-89
2022/03/05 07:54:49;;;;;;;;;;;10.90;99.90;;;;;;5033324;28;19909;-88
2022/03/05 07:57:19;;;;;;;;;;;11.10;99.90;;;;;;5035328;28;19932;-89
2022/03/05 07:59:47;;;;;;;;;;;11.40;99.90;;;;;;5045954;28;19909;-89
2022/03/05 08:02:15;;;;;;;;;;;11.40;99.90;;;;;;5031951;28;19939;-84
2022/03/05 08:04:41;;;;;;;;;;;11.30;99.90;;;;;;5017677;28;19925;-83
2022/03/05 08:07:11;;;;;;;;;;;11.30;99.90;;;;;;5018348;28;19928;-86
2022/03/05 08:09:38;;;;;;;;;;;11.10;99.90;;;;;;5011751;28;19988;-84
2022/03/05 08:12:05;;;;;;;;;;;11.10;99.90;;;;;;5024703;28;20368;-88
2022/03/05 08:14:32;;;;;;;;;;;11.20;99.90;;;;;;5024263;28;19932;-86
2022/03/05 08:16:59;;;;;;;;;;;11.40;99.90;;;;;;5036145;28;19936;-90
2022/03/05 08:19:26;;;;;;;;;;;11.40;99.90;;;;;;5022397;28;19936;-85
2022/03/05 08:21:53;;;;;;;;;;;11.50;99.90;;;;;;5017755;28;19922;-82
2022/03/05 08:24:22;;;;;;;;;;;11.50;98.20;;;;;;5011859;28;19928;-83
2022/03/05 08:26:48;;;;;;;;;;;11.30;98.60;;;;;;5014435;28;19925;-82
2022/03/05 08:29:15;;;;;;;;;;;11.20;99.40;;;;;;5020596;28;19925;-85
2022/03/05 08:31:42;;;;;;;;;;;11.20;98.50;;;;;;5030344;28;20043;-85
2022/03/05 08:34:09;;;;;;;;;;;11.30;97.30;;;;;;5010382;28;19939;-84
2022/03/05 08:36:36;;;;;;;;;;;11.30;97.40;;;;;;4999774;28;20021;-84
2022/03/05 08:39:03;;;;;;;;;;;11.10;96.30;;;;;;5015422;28;19925;-82
2022/03/05 08:41:31;;;;;;;;;;;11.10;96.50;;;;;;5001277;28;19925;-82
2022/03/05 08:43:58;;;;;;;;;;;11.00;96.50;;;;;;5024487;28;19925;-86
2022/03/05 08:46:25;;;;;;;;;;;11.00;97.00;;;;;;5027365;28;19925;-86
2022/03/05 08:48:52;;;;;;;;;;;11.00;97.10;;;;;;5022936;28;19932;-88
2022/03/05 08:51:22;;;;;;;;;;;10.90;97.20;;;;;;5017695;28;19932;-87
2022/03/05 08:53:49;;;;;;;;;;;11.00;96.90;;;;;;4999395;28;20036;-87
2022/03/05 08:56:17;;;;;;;;;;;13.40;97.90;;;;;;5016296;28;19925;-86
2022/03/05 08:58:45;;;;;;;;;;;10.90;96.80;;;;;;4997628;28;19922;-86
2022/03/05 09:01:12;;;;;;;;;;;13.50;98.20;;;;;;4997676;28;19933;-87
2022/03/05 09:03:39;;;;;;;;;;;9.50;96.70;;;;;;5014269;28;20313;-85
2022/03/05 09:06:06;;;;;;;;;;;10.90;96.80;;;;;;5014824;28;19921;-86
2022/03/05 09:08:33;;;;;;;;;;;10.90;96.50;;;;;;4996830;28;20316;-86
2022/03/05 09:11:00;;;;;;;;;;;10.90;95.30;;;;;;5011418;28;20012;-84
2022/03/05 09:13:27;;;;;;;;;;;10.70;95.00;;;;;;5003292;28;19949;-85
2022/03/05 09:15:55;;;;;;;;;;;10.60;94.80;;;;;;5013426;28;20462;-85
2022/03/05 09:18:22;;;;;;;;;;;10.30;94.70;;;;;;5010925;28;19931;-84
2022/03/05 09:20:49;;;;;;;;;;;10.30;95.10;;;;;;5013575;28;19922;-87
2022/03/05 09:23:17;;;;;;;;;;;10.20;94.10;;;;;;5015155;28;19925;-84
2022/03/05 09:25:44;;;;;;;;;;;10.10;94.20;;;;;;5011268;28;19922;-85
2022/03/05 09:28:11;;;;;;;;;;;9.80;94.20;;;;;;4993582;28;19951;-85
2022/03/05 09:30:39;;;;;;;;;;;9.40;94.10;;;;;;4978288;28;20034;-85
2022/03/05 09:33:08;;;;;;;;;;;9.10;94.50;;;;;;4994179;28;19930;-87
2022/03/05 09:35:35;;;;;;;;;;;8.90;94.60;;;;;;4979782;28;20016;-83
2022/03/05 09:38:05;;;;;;;;;;;8.50;94.80;;;;;;4987973;28;19932;-87
2022/03/05 09:40:32;;;;;;;;;;;8.50;95.00;;;;;;5018098;28;19929;-84
2022/03/05 09:43:01;;;;;;;;;;;8.40;95.10;;;;;;5003058;28;19929;-85
2022/03/05 09:45:29;;;;;;;;;;;8.40;95.00;;;;;;5006069;28;19930;-83
2022/03/05 09:47:56;;;;;;;;;;;8.40;95.00;;;;;;4999655;28;19949;-84
2022/03/05 09:50:25;;;;;;;;;;;8.30;95.00;;;;;;5013909;28;19956;-87
2022/03/05 09:52:52;;;;;;;;;;;8.30;95.00;;;;;;5010583;28;20466;-86
2022/03/05 09:55:19;;;;;;;;;;;8.40;95.10;;;;;;5015906;28;19921;-85
2022/03/05 09:57:46;;;;;;;;;;;8.40;95.40;;;;;;5031464;28;19961;-85
2022/03/05 10:00:13;;;;;;;;;;;8.40;95.50;;;;;;4994880;28;19925;-85
2022/03/05 10:02:40;;;;;;;;;;;8.60;95.90;;;;;;5010474;28;19925;-82
2022/03/05 10:05:17;;;;;;;;;;;8.80;95.50;;;;;;5014952;28;19925;-85
2022/03/05 10:07:59;;;;;;;;;;;8.70;95.20;;;;;;5006713;28;20028;-84
2022/03/05 10:10:28;;;;;;;;;;;8.70;95.50;;;;;;5010444;28;19925;-80
2022/03/05 10:12:55;;;;;;;;;;;8.80;95.30;;;;;;4996010;28;19932;-80
2022/03/05 10:15:22;;;;;;;;;;;8.90;95.70;;;;;;5013090;28;19921;-81
2022/03/05 10:17:58;;;;;;;;;;;9.10;96.00;;;;;;4993595;28;20427;-79
2022/03/05 10:20:26;;;;;;;;;;;9.40;95.90;;;;;;5000892;28;20009;-83
2022/03/05 10:23:01;;;;;;;;;;;9.40;95.90;;;;;;4999579;28;19928;-85
2022/03/05 10:25:30;;;;;;;;;;;9.70;95.30;;;;;;5009107;28;19947;-81
2022/03/05 10:28:01;;;;;;;;;;;9.70;94.90;;;;;;5014067;28;19925;-81
2022/03/05 10:30:29;;;;;;;;;;;9.80;94.30;;;;;;5011748;28;19925;-82
2022/03/05 10:32:55;;;;;;;;;;;9.00;93.80;;;;;;5008997;28;20008;-82
2022/03/05 10:35:22;;;;;;;;;;;9.90;94.20;;;;;;5007721;28;19936;-82
2022/03/05 10:37:50;;;;;;;;;;;10.00;93.90;;;;;;4992171;28;20001;-81
2022/03/05 10:40:24;;;;;;;;;;;10.10;93.80;;;;;;5012482;28;19992;-83
2022/03/05 10:42:53;;;;;;;;;;;10.20;94.00;;;;;;5010884;28;19921;-83
2022/03/05 10:45:19;;;;;;;;;;;10.40;93.30;;;;;;5012043;28;19960;-83
2022/03/05 10:47:47;;;;;;;;;;;10.50;93.10;;;;;;5011351;28;20277;-81
2022/03/05 10:50:23;;;;;;;;;;;10.60;93.60;;;;;;5010543;28;19985;-82
2022/03/05 10:52:51;;;;;;;;;;;10.70;93.20;;;;;;4992866;28;20271;-84
2022/03/05 10:55:18;;;;;;;;;;;10.90;93.60;;;;;;5010276;28;19929;-80
2022/03/05 10:57:57;;;;;;;;;;;11.00;93.70;;;;;;5008193;28;19960;-79
2022/03/05 11:00:24;;;;;;;;;;;11.20;93.50;;;;;;5015295;28;19960;-81
2022/03/05 11:02:51;;;;;;;;;;;11.40;92.80;;;;;;5008471;28;19936;-85
2022/03/05 11:05:17;;;;;;;;;;;11.50;93.00;;;;;;5012575;28;19944;-83
2022/03/05 11:07:45;;;;;;;;;;;11.60;93.00;;;;;;5004936;28;19952;-80
2022/03/05 11:10:11;;;;;;;;;;;11.60;92.80;;;;;;5008424;28;20534;-82
2022/03/05 11:12:39;;;;;;;;;;;11.70;91.90;;;;;;5013607;28;20033;-86
2022/03/05 11:15:08;;;;;;;;;;;11.80;91.90;;;;;;5010369;28;19921;-81
2022/03/05 11:17:37;;;;;;;;;;;11.90;91.80;;;;;;5000634;28;19940;-82
2022/03/05 11:20:04;;;;;;;;;;;11.90;91.30;;;;;;4998559;28;19929;-80
2022/03/05 11:22:32;;;;;;;;;;;12.00;91.20;;;;;;5017235;28;19952;-83
2022/03/05 11:24:59;;;;;;;;;;;12.20;91.40;;;;;;5014545;28;19956;-85
2022/03/05 11:27:25;;;;;;;;;;;12.30;91.50;;;;;;5017332;28;19993;-85
2022/03/05 11:29:53;;;;;;;;;;;12.30;91.40;;;;;;5016593;28;19955;-84
2022/03/05 11:32:22;;;;;;;;;;;12.60;90.50;;;;;;5008661;28;19980;-85
2022/03/05 11:34:49;;;;;;;;;;;12.70;89.70;;;;;;5017619;28;19935;-86
2022/03/05 11:37:24;;;;;;;;;;;12.70;89.90;;;;;;5019129;28;19926;-87
2022/03/05 11:39:51;;;;;;;;;;;12.80;89.20;;;;;;5012760;28;19944;-84
2022/03/05 11:42:22;;;;;;;;;;;12.90;89.80;;;;;;5012738;28;19932;-85
2022/03/05 11:44:48;;;;;;;;;;;13.00;89.00;;;;;;5015974;28;19921;-84
2022/03/05 11:47:28;;;;;;;;;;;13.00;86.90;;;;;;5017040;28;19925;-84
2022/03/05 11:50:17;;;;;;;;;;;13.10;88.10;;;;;;5018548;28;19959;-86
2022/03/05 11:53:03;;;;;;;;;;;13.30;89.60;;;;;;5007862;28;19924;-85
2022/03/05 11:55:30;;;;;;;;;;;13.50;89.40;;;;;;5028780;28;19925;-86
2022/03/05 11:58:17;;;;;;;;;;;13.50;85.30;;;;;;5020650;28;20411;-85
2022/03/05 12:00:46;;;;;;;;;;;13.50;84.10;;;;;;5007552;28;19970;-85
2022/03/05 12:03:22;;;;;;;;;;;13.50;83.60;;;;;;5030338;28;19953;-85
2022/03/05 12:05:53;;;;;;;;;;;13.50;85.30;;;;;;5027250;28;19980;-82
2022/03/05 12:08:41;;;;;;;;;;;13.60;83.40;;;;;;5004270;28;19933;-82
2022/03/05 12:11:09;;;;;;;;;;;13.50;83.10;;;;;;5008446;28;20035;-82
2022/03/05 12:13:40;;;;;;;;;;;13.50;83.30;;;;;;5016001;28;20331;-82
2022/03/05 12:16:13;;;;;;;;;;;13.60;83.20;;;;;;5012420;28;19961;-83
2022/03/05 12:18:42;;;;;;;;;;;13.60;83.20;;;;;;5013010;28;19925;-83
2022/03/05 12:21:09;;;;;;;;;;;13.70;82.80;;;;;;5012582;28;19929;-83
2022/03/05 12:23:36;;;;;;;;;;;13.90;82.90;;;;;;5007890;28;19937;-82
2022/03/05 12:26:04;;;;;;;;;;;13.90;82.40;;;;;;5014146;28;20051;-82
2022/03/05 12:28:41;;;;;;;;;;;13.90;82.80;;;;;;5013261;28;20016;-82
2022/03/05 12:31:12;;;;;;;;;;;13.90;80.70;;;;;;5012680;28;20020;-82
2022/03/05 12:33:39;;;;;;;;;;;13.90;81.00;;;;;;5012153;28;19980;-83
2022/03/05 12:36:13;;;;;;;;;;;13.90;80.70;;;;;;5011260;28;19947;-83
2022/03/05 12:38:40;;;;;;;;;;;14.00;80.30;;;;;;4996303;28;19925;-82
2022/03/05 12:41:07;;;;;;;;;;;14.20;78.20;;;;;;5014377;28;20474;-83
2022/03/05 12:43:33;;;;;;;;;;;14.10;79.50;;;;;;5014150;28;19928;-83
2022/03/05 12:46:00;;;;;;;;;;;14.10;79.50;;;;;;5011949;28;19921;-83
2022/03/05 12:48:32;;;;;;;;;;;14.10;79.50;;;;;;5013075;28;19921;-83
2022/03/05 12:50:59;;;;;;;;;;;14.20;79.10;;;;;;5014738;28;19925;-82
2022/03/05 12:53:29;;;;;;;;;;;14.20;79.80;;;;;;5017018;28;20273;-83
2022/03/05 12:55:57;;;;;;;;;;;14.30;80.30;;;;;;5014606;28;20370;-83
2022/03/05 12:58:24;;;;;;;;;;;14.30;79.20;;;;;;4999061;28;19976;-83
2022/03/05 13:00:53;;;;;;;;;;;14.30;76.80;;;;;;5015476;28;19932;-83
2022/03/05 13:03:20;;;;;;;;;;;14.30;77.10;;;;;;5014413;28;19925;-83
2022/03/05 13:05:47;;;;;;;;;;;14.20;77.80;;;;;;5016005;28;19925;-83
2022/03/05 13:08:17;;;;;;;;;;;14.10;76.90;;;;;;5001351;28;19958;-83
2022/03/05 13:10:46;;;;;;;;;;;14.10;75.90;;;;;;5017084;28;19921;-82
2022/03/05 13:13:13;;;;;;;;;;;14.10;75.50;;;;;;5007214;28;19921;-84
2022/03/05 13:15:41;;;;;;;;;;;14.00;75.30;;;;;;4997577;28;19921;-84
2022/03/05 13:18:08;;;;;;;;;;;13.90;75.30;;;;;;5015338;28;19925;-85
2022/03/05 13:20:35;;;;;;;;;;;13.80;74.70;;;;;;5016046;28;20357;-84
2022/03/05 13:23:02;;;;;;;;;;;13.70;73.70;;;;;;5017008;28;19925;-83
2022/03/05 13:25:30;;;;;;;;;;;13.70;73.50;;;;;;5016551;28;20021;-83
2022/03/05 13:27:58;;;;;;;;;;;13.70;73.80;;;;;;5007377;28;20437;-82
2022/03/05 13:30:27;;;;;;;;;;;13.60;73.90;;;;;;5015447;28;20325;-83
2022/03/05 13:32:54;;;;;;;;;;;13.50;74.10;;;;;;4998638;28;20000;-83
2022/03/05 13:35:27;;;;;;;;;;;13.30;73.00;;;;;;5010489;28;19927;-82
2022/03/05 13:37:55;;;;;;;;;;;13.20;74.00;;;;;;5014706;28;20211;-84
2022/03/05 13:40:22;;;;;;;;;;;13.30;74.10;;;;;;5013614;28;19931;-84
2022/03/05 13:42:55;;;;;;;;;;;13.30;73.80;;;;;;5015572;28;20141;-85
2022/03/05 13:45:26;;;;;;;;;;;13.30;74.80;;;;;;5011074;28;19925;-86
2022/03/05 13:47:53;;;;;;;;;;;13.30;74.40;;;;;;4997122;28;20114;-85
2022/03/05 13:50:20;;;;;;;;;;;13.40;75.20;;;;;;5015611;28;19925;-83
2022/03/05 13:52:56;;;;;;;;;;;13.50;74.40;;;;;;5021259;28;19925;-84
2022/03/05 13:55:23;;;;;;;;;;;13.60;75.10;;;;;;5000006;28;19925;-84
2022/03/05 13:57:55;;;;;;;;;;;13.60;75.40;;;;;;5015659;28;19929;-83
2022/03/05 14:00:24;;;;;;;;;;;15.60;77.00;;;;;;5015284;28;19976;-83
2022/03/05 14:02:53;;;;;;;;;;;13.70;75.00;;;;;;5002592;28;19928;-83
2022/03/05 14:05:21;;;;;;;;;;;13.70;75.00;;;;;;5018783;28;19921;-83
2022/03/05 14:07:49;;;;;;;;;;;13.70;74.60;;;;;;5013677;28;20024;-84
2022/03/05 14:10:16;;;;;;;;;;;13.70;75.10;;;;;;5019023;28;20013;-85
2022/03/05 14:12:45;;;;;;;;;;;13.80;75.20;;;;;;5014549;28;19915;-87
2022/03/05 14:15:12;;;;;;;;;;;13.90;75.40;;;;;;5017248;28;19921;-88
2022/03/05 14:17:41;;;;;;;;;;;13.80;74.60;;;;;;5007603;28;19936;-89
2022/03/05 14:20:09;;;;;;;;;;;13.20;73.70;;;;;;5010967;28;19932;-86
2022/03/05 14:22:37;;;;;;;;;;;13.70;73.20;;;;;;5006294;28;19936;-88
2022/03/05 14:25:04;;;;;;;;;;;13.60;74.10;;;;;;4995537;28;19926;-88
2022/03/05 14:27:31;;;;;;;;;;;13.60;73.90;;;;;;5004537;28;20275;-87
2022/03/05 14:29:58;;;;;;;;;;;13.40;72.50;;;;;;5010270;28;20408;-88
2022/03/05 14:32:25;;;;;;;;;;;13.10;70.60;;;;;;4989769;28;19933;-88
2022/03/05 14:34:55;;;;;;;;;;;13.00;71.80;;;;;;5009578;28;19937;-87
2022/03/05 14:37:22;;;;;;;;;;;12.80;71.30;;;;;;5014629;28;20013;-84
2022/03/05 14:39:48;;;;;;;;;;;12.80;71.40;;;;;;5007824;28;19975;-87
2022/03/05 14:42:15;;;;;;;;;;;12.60;70.50;;;;;;4992039;28;19932;-87
2022/03/05 14:44:42;;;;;;;;;;;12.50;70.90;;;;;;4992753;28;19921;-87